General Aviation Weather

Text Reports

Enter one or more of the following location identifiers separated by a space:

Zip Code, Four-Character ICAO or Three-Character IATA airport codes.

METAR - Aviation Routine Weather Report
ENEV - Evenes,
Updated at 1:50 AM GMT on April 27, 2015 (3:50 AM CEST):
METAR ENEV 270150Z AUTO 13009KT 9999NDV OVC070/// 03/M06 Q1003 RMK WIND 1400FT 11013KT
TAF - Terminal Area Forecast
ENEV - Evenes,
Updated at 1:50 AM GMT on April 27, 2015 (3:50 AM CEST):
No TAF is currently available for this location.
Decoded:
No decoded TAF is available.
PIREP - Pilot Weather Report
ENEV - Evenes,
Updated at 1:50 AM GMT on April 27, 2015 (3:50 AM CEST):
No PIREP is currently available for this location.
AIRMET - Airmens Meteorological Information
ENEV - Evenes,
Updated at 1:50 AM GMT on April 27, 2015 (3:50 AM CEST):
No AIRMET is currently available for this location.
SIGMET - Significant Meteorological Information
ENEV - Evenes,
Updated at 1:50 AM GMT on April 27, 2015 (3:50 AM CEST):
No SIGMET is currently available for this location.
NOTAM - Notice to Airmen
ENEV - Evenes,
Updated at 1:50 AM GMT on April 27, 2015 (3:50 AM CEST):
No NOTAM is currently available for this location.
Forecast Area
ENEV - Evenes,
Updated at 1:50 AM GMT on April 27, 2015 (3:50 AM CEST):
No NOTAM is currently available for this location.
Aviation Weather Maps